LRSB Airport Information

Runway Information
Runway 09 Length 6562 ft width 98 ft
Elevation 1496 ft Threshold 0 ft Heading 91
Runway 27 Length 6562 ft Width 98 ft
Elevation 1444 ft Threshold 0 ft Heading 271
Airport Frequencies
Type APP Name APP Frequency 122.7 MHZ
Type GCA Name PRECISON Frequency 121.3 MHZ
Type TWR Name TWR Frequency 122.7 MHZ
Airport Navaids
Type NDB Name Sibiu Frequency 381 KHZ
Airport Weather Information & NOTAM
ADDS - METARS form results

(1021 UTC 23 March 2019)
Data provider http://aviationweather.gov/metar/data/
 
METAR text: LRSB 231000Z 01005KT 330V050 9999 FEW037 11/04 Q1025
Conditions at: LRSB (SIBIU/TURNISOR , RO) observed 1000 UTC 23 March 2019
Temperature: 11.0°C (52°F)
Dewpoint: 4.0°C (39°F) [RH = 62%]
Pressure (altimeter): 30.27 inches Hg (1025.0 mb)
Winds: from the N (10 degrees) at 6 MPH (5 knots; 2.6 m/s)
Visibility: 6 or more miles (10+ km)
Ceiling: at least 12,000 feet AGL
Clouds: few clouds at 3700 feet AGL
Weather: no significant weather observed at this time

METAR text: LRSB 230930Z 36006KT 9999 FEW034 11/04 Q1026
Conditions at: LRSB (SIBIU/TURNISOR , RO) observed 0930 UTC 23 March 2019
Temperature: 11.0°C (52°F)
Dewpoint: 4.0°C (39°F) [RH = 62%]
Pressure (altimeter): 30.30 inches Hg (1026.0 mb)
Winds: from the N (360 degrees) at 7 MPH (6 knots; 3.1 m/s)
Visibility: 6 or more miles (10+ km)
Ceiling: at least 12,000 feet AGL
Clouds: few clouds at 3400 feet AGL
Weather: no significant weather observed at this time

Forecast for: LRSB (SIBIU/TURNISOR , RO)
Text: TAF LRSB 230500Z 2306/2406 VRB04KT 9999 BKN040
Forecast period: 0600 to 0900 UTC 23 March 2019
Forecast type: FROM: standard forecast or significant change
Winds: variable direction winds at 5 MPH (4 knots; 2.1 m/s)
Visibility: 6 or more miles 10+ km)
Ceiling: 4000 feet AGL
Clouds: broken clouds at 4000 feet AGL
Weather: no significant weather forecast for this period
Text: BECMG 2309/2311 35010KT
Forecast period: 0900 to 1600 UTC 23 March 2019
Forecast type: BECOMING: Conditions expected to become as follows by 1100 UTC 23 March 2019
Winds: from the N (350 degrees) at 12 MPH (10 knots; 5.1 m/s)
Visibility: 6 or more miles 10+ km)
Ceiling: 4000 feet AGL
Clouds: broken clouds at 4000 feet AGL
Weather: no significant weather forecast for this period
Text: BECMG 2316/2318 VRB04KT
Forecast period: 1600 UTC 23 March 2019 to 0600 UTC 24 March 2019
Forecast type: BECOMING: Conditions expected to become as follows by 1800 UTC 23 March 2019
Winds: variable direction winds at 5 MPH (4 knots; 2.1 m/s)
Visibility: 6 or more miles 10+ km)
Ceiling: 4000 feet AGL
Clouds: broken clouds at 4000 feet AGL
Weather: no significant weather forecast for this period